Bookmark and Share
Track history (hours):
 

Monica Means

More information available from US FCC via Universal Licensing System and Coast Guard Vessel Documentation Center.

Last reported at 2013-Apr-09 03:33 UTC. Time now 2014-Apr-23 12:39 UTC.
Position N 30°23' W 086°56'.
Warning: this ship's position is years out of date!

Length 27 m.

Type: Towing. MMSI: 367171950.

NotesDate/timePositionNaut miles runAvg speedWind from/ knotsBaromVisibWave heightAir tempDewpointWater temp
2013-Apr-09 03:33N 30°23' W 086°56'6 5.5
2013-Apr-09 02:32N 30°24' W 086°49'6 5.7
2013-Apr-09 01:31N 30°24' W 086°43'0 0.3
2013-Apr-09 00:33N 30°24' W 086°42'0 0.1
2013-Apr-08 23:33N 30°24' W 086°42'0 0.0
2013-Apr-08 22:33N 30°24' W 086°42'0 0.0
2013-Apr-08 21:33N 30°24' W 086°42'0 0.0
2013-Apr-08 20:33N 30°24' W 086°42'0 0.0
2013-Apr-08 19:33N 30°24' W 086°42'0 0.0
2013-Apr-08 18:33N 30°24' W 086°42'0 0.0
2013-Apr-08 17:33N 30°24' W 086°42'0 0.0
2013-Apr-08 16:32N 30°24' W 086°42'0 0.0
2013-Apr-08 15:33N 30°24' W 086°42'0 0.0
2013-Apr-08 14:31N 30°24' W 086°42'0 0.0
2013-Apr-08 13:31N 30°24' W 086°42'0 0.0
2013-Apr-08 12:33N 30°24' W 086°42'0 0.0
2013-Apr-08 11:33N 30°24' W 086°42'0 0.0
2013-Apr-08 10:33N 30°24' W 086°42'0 0.0
2013-Apr-08 09:33N 30°24' W 086°42'0 0.0
2013-Apr-08 08:33N 30°24' W 086°42'0 0.0
2013-Apr-08 07:33N 30°24' W 086°42'0 0.0
2013-Apr-08 06:33N 30°24' W 086°42'0 0.0
2013-Apr-08 04:33N 30°24' W 086°42'0 0.0
2013-Apr-08 03:32N 30°24' W 086°42'0 0.0
2013-Apr-08 02:32N 30°24' W 086°42'0 0.0
2013-Apr-08 01:30N 30°24' W 086°42'0 0.0
2013-Apr-08 00:32N 30°24' W 086°42'0 0.1
2013-Apr-07 23:33N 30°24' W 086°42'0 0.1
2013-Apr-07 22:33N 30°24' W 086°42'0 0.0
2013-Apr-07 21:33N 30°24' W 086°42'0 0.0
2013-Apr-07 20:33N 30°24' W 086°42'0 0.0
2013-Apr-07 19:33N 30°24' W 086°42'0 0.0
2013-Apr-07 18:33N 30°24' W 086°42'0 0.0
2013-Apr-07 17:33N 30°24' W 086°42'0 0.0
2013-Apr-07 16:33N 30°24' W 086°42'0 0.0
2013-Apr-07 15:33N 30°24' W 086°42'0 0.0
2013-Apr-07 14:33N 30°24' W 086°42'0 0.0
2013-Apr-07 13:28N 30°24' W 086°42'0 0.0
2013-Apr-07 12:33N 30°24' W 086°42'0 0.0
2013-Apr-07 11:33N 30°24' W 086°42'0 0.0
2013-Apr-07 10:33N 30°24' W 086°42'0 0.0
2013-Apr-07 09:33N 30°24' W 086°42'0 0.0
2013-Apr-07 08:33N 30°24' W 086°42'0 0.0
2013-Apr-07 07:33N 30°24' W 086°42'0 0.0
2013-Apr-07 06:33N 30°24' W 086°42'0 0.0
2013-Apr-07 04:33N 30°24' W 086°42'0 0.0
2013-Apr-07 03:30N 30°24' W 086°42'0 0.0
2013-Apr-07 02:33N 30°24' W 086°42'0 0.0
2013-Apr-07 01:33N 30°24' W 086°42'0 0.0
2013-Apr-07 00:33N 30°24' W 086°42'0 0.0
2013-Apr-06 23:33N 30°24' W 086°42'0 0.0
2013-Apr-06 22:34N 30°24' W 086°42'0 0.0
2013-Apr-06 21:33N 30°24' W 086°42'0 0.0
2013-Apr-06 20:34N 30°24' W 086°42'0 0.0
2013-Apr-06 19:33N 30°24' W 086°42'0 0.0
2013-Apr-06 18:31N 30°24' W 086°42'0 0.0
2013-Apr-06 17:32N 30°24' W 086°42'0 0.0
2013-Apr-06 16:31N 30°24' W 086°42'1 0.7
2013-Apr-06 15:30N 30°24' W 086°41'2 0.1
2013-Apr-05 08:08N 30°24' W 086°39'2 4.3
2013-Apr-05 07:33N 30°24' W 086°42'5 5.2
2013-Apr-05 06:33N 30°24' W 086°48'11 5.4
2013-Apr-05 04:32N 30°23' W 087°01'  

Dump ship's entire track history

sailing weather and tide predictions

Monica Means — WDD6362 — position and weather